createdAt,value
2022-08-04T00:01:46.541Z,99.90
2022-08-04T00:04:14.700Z,99.90
2022-08-04T00:06:44.462Z,99.90
2022-08-04T00:09:14.254Z,99.90
2022-08-04T00:11:44.851Z,99.90
2022-08-04T00:14:13.858Z,99.90
2022-08-04T00:16:41.451Z,99.90
2022-08-04T00:19:11.388Z,99.90
2022-08-04T00:21:39.457Z,99.90
2022-08-04T00:24:12.295Z,99.90
2022-08-04T00:26:40.087Z,99.90
2022-08-04T00:29:06.790Z,99.90
2022-08-04T00:31:56.329Z,99.90
2022-08-04T00:34:21.037Z,99.90
2022-08-04T00:36:47.841Z,99.90
2022-08-04T00:39:16.194Z,99.90
2022-08-04T00:41:56.343Z,99.90
2022-08-04T00:44:26.881Z,99.90
2022-08-04T00:47:08.819Z,99.90
2022-08-04T00:49:53.845Z,99.90
2022-08-04T00:52:52.941Z,99.90
2022-08-04T00:55:20.904Z,99.90
2022-08-04T00:57:47.554Z,99.90
2022-08-04T01:00:15.636Z,99.90
2022-08-04T01:02:51.664Z,99.90
2022-08-04T01:05:18.280Z,99.90
2022-08-04T01:07:57.099Z,99.90
2022-08-04T01:10:27.676Z,99.90
2022-08-04T01:13:03.662Z,99.90
2022-08-04T01:15:59.808Z,99.90
2022-08-04T01:18:33.071Z,99.90
2022-08-04T01:21:16.442Z,99.90
2022-08-04T01:23:43.151Z,99.90
2022-08-04T01:26:42.412Z,99.90
2022-08-04T01:29:02.527Z,99.90
2022-08-04T01:31:41.394Z,99.90
2022-08-04T01:34:11.658Z,99.90
2022-08-04T01:36:41.324Z,99.90
2022-08-04T01:39:26.999Z,99.90
2022-08-04T01:41:57.766Z,99.90
2022-08-04T01:44:27.233Z,99.90
2022-08-04T01:46:54.250Z,99.90
2022-08-04T01:49:22.001Z,99.90
2022-08-04T01:51:52.231Z,99.90
2022-08-04T01:54:19.274Z,99.90
2022-08-04T01:56:49.339Z,99.90
2022-08-04T01:59:20.763Z,99.90
2022-08-04T02:01:48.224Z,99.90
2022-08-04T02:04:21.747Z,99.90
2022-08-04T02:06:56.182Z,99.90
2022-08-04T02:09:54.426Z,99.90
2022-08-04T02:12:27.362Z,99.90
2022-08-04T02:14:59.757Z,99.90
2022-08-04T02:17:30.268Z,99.90
2022-08-04T02:20:15.346Z,99.90
2022-08-04T02:22:53.185Z,99.90
2022-08-04T02:25:23.433Z,99.90
2022-08-04T02:28:02.862Z,99.90
2022-08-04T02:30:48.535Z,99.90
2022-08-04T02:33:18.379Z,99.90
2022-08-04T02:35:45.972Z,99.90
2022-08-04T02:38:18.396Z,99.90
2022-08-04T02:40:54.026Z,99.90
2022-08-04T02:43:51.264Z,99.90
2022-08-04T02:46:17.940Z,99.90
2022-08-04T02:48:46.420Z,99.90
2022-08-04T02:51:13.827Z,99.90
2022-08-04T02:53:41.733Z,99.90
2022-08-04T02:56:09.481Z,99.90
2022-08-04T02:58:37.084Z,99.90
2022-08-04T03:01:04.469Z,99.90
2022-08-04T03:03:35.682Z,99.90
2022-08-04T03:06:11.582Z,99.90
2022-08-04T03:08:44.295Z,99.90
2022-08-04T03:11:29.896Z,99.90
2022-08-04T03:14:20.425Z,99.90
2022-08-04T03:16:49.832Z,99.90
2022-08-04T03:19:16.512Z,99.90
2022-08-04T03:21:43.139Z,99.90
2022-08-04T03:24:09.905Z,99.90
2022-08-04T03:26:36.596Z,99.90
2022-08-04T03:29:35.238Z,99.90
2022-08-04T03:32:15.434Z,99.90
2022-08-04T03:34:51.289Z,99.90
2022-08-04T03:37:17.962Z,99.90
2022-08-04T03:39:58.073Z,99.90
2022-08-04T03:42:24.731Z,99.90
2022-08-04T03:44:57.172Z,99.90
2022-08-04T03:47:25.964Z,99.90
2022-08-04T03:50:11.451Z,99.90
2022-08-04T03:53:09.238Z,99.90
2022-08-04T03:55:45.055Z,99.90
2022-08-04T03:58:30.568Z,99.90
2022-08-04T04:01:00.772Z,99.90
2022-08-04T04:03:28.548Z,99.90
2022-08-04T04:06:04.700Z,99.90
2022-08-04T04:08:40.439Z,99.90
2022-08-04T04:11:22.221Z,99.90
2022-08-04T04:13:51.992Z,99.90
2022-08-04T04:16:24.708Z,99.90
2022-08-04T04:18:54.427Z,99.90
2022-08-04T04:21:21.088Z,99.90
2022-08-04T04:24:14.552Z,99.90
2022-08-04T04:27:01.487Z,99.90
2022-08-04T04:29:31.228Z,99.90
2022-08-04T04:32:10.112Z,99.90
2022-08-04T04:34:45.992Z,99.90
2022-08-04T04:37:13.259Z,99.90
2022-08-04T04:39:43.052Z,99.90
2022-08-04T04:42:21.078Z,99.90
2022-08-04T04:44:59.974Z,99.90
2022-08-04T04:48:08.033Z,99.90
2022-08-04T04:50:38.372Z,99.90
2022-08-04T04:53:10.354Z,99.90
2022-08-04T04:55:47.695Z,99.90
2022-08-04T04:58:16.868Z,99.90
2022-08-04T05:00:46.378Z,99.90
2022-08-04T05:03:30.124Z,99.90
2022-08-04T05:06:03.081Z,99.90
2022-08-04T05:08:47.452Z,99.90
2022-08-04T05:11:34.447Z,99.90
2022-08-04T05:14:36.961Z,99.90
2022-08-04T05:16:59.052Z,99.90
2022-08-04T05:19:25.714Z,99.90
2022-08-04T05:22:01.581Z,99.90
2022-08-04T05:24:29.415Z,99.90
2022-08-04T05:27:03.662Z,99.90
2022-08-04T05:29:31.019Z,99.90
2022-08-04T05:32:01.600Z,99.90
2022-08-04T05:34:30.463Z,99.90
2022-08-04T05:37:01.643Z,99.90
2022-08-04T05:39:34.103Z,99.90
2022-08-04T05:42:04.393Z,99.90
2022-08-04T05:44:32.390Z,99.90
2022-08-04T05:46:59.342Z,99.90
2022-08-04T05:49:27.723Z,99.90
2022-08-04T05:51:55.946Z,99.90
2022-08-04T05:54:23.451Z,99.90
2022-08-04T05:56:51.066Z,99.90
2022-08-04T05:59:18.771Z,99.90
2022-08-04T06:01:55.680Z,99.90
2022-08-04T06:04:32.551Z,99.90
2022-08-04T06:06:59.350Z,99.90
2022-08-04T06:09:26.146Z,99.90
2022-08-04T06:12:02.153Z,99.90
2022-08-04T06:14:38.072Z,99.90
2022-08-04T06:17:05.743Z,99.90
2022-08-04T06:20:03.596Z,99.90
2022-08-04T06:22:41.739Z,99.90
2022-08-04T06:25:10.130Z,99.90
2022-08-04T06:27:37.302Z,99.90
2022-08-04T06:30:06.978Z,99.90
2022-08-04T06:32:42.081Z,99.90
2022-08-04T06:35:09.557Z,99.90
2022-08-04T06:37:42.761Z,99.90
2022-08-04T06:40:29.492Z,99.90
2022-08-04T06:42:59.643Z,99.90
2022-08-04T06:45:27.126Z,99.90
2022-08-04T06:47:54.401Z,99.90
2022-08-04T06:51:29.581Z,99.90
2022-08-04T06:53:08.112Z,99.90
2022-08-04T06:55:34.920Z,99.90
2022-08-04T06:58:03.323Z,99.90
2022-08-04T07:00:31.993Z,99.90
2022-08-04T07:02:59.416Z,99.90
2022-08-04T07:05:26.563Z,99.90
2022-08-04T07:07:58.001Z,99.90
2022-08-04T07:10:28.886Z,99.90
2022-08-04T07:12:56.500Z,99.90
2022-08-04T07:15:23.422Z,99.90
2022-08-04T07:17:52.173Z,99.90
2022-08-04T07:20:34.181Z,99.90
2022-08-04T07:23:06.399Z,99.90
2022-08-04T07:25:59.509Z,99.90
2022-08-04T07:28:24.504Z,99.90
2022-08-04T07:30:52.953Z,99.90
2022-08-04T07:33:19.708Z,99.90
2022-08-04T07:36:05.124Z,99.90
2022-08-04T07:38:37.876Z,99.90
2022-08-04T07:41:35.655Z,99.90
2022-08-04T07:44:04.188Z,99.90
2022-08-04T07:46:31.617Z,99.90
2022-08-04T07:48:59.844Z,99.90
2022-08-04T07:51:26.907Z,99.90
2022-08-04T07:53:56.471Z,99.90
2022-08-04T07:56:23.509Z,99.90
2022-08-04T07:58:50.471Z,99.90
2022-08-04T08:01:19.008Z,99.90
2022-08-04T08:03:46.598Z,99.90
2022-08-04T08:06:31.297Z,99.90
2022-08-04T08:09:13.419Z,99.90
2022-08-04T08:12:35.441Z,99.90
2022-08-04T08:14:28.334Z,99.90
2022-08-04T08:16:55.085Z,99.90
2022-08-04T08:19:21.907Z,99.90
2022-08-04T08:21:59.193Z,99.90
2022-08-04T08:24:41.817Z,99.90
2022-08-04T08:27:08.498Z,99.90
2022-08-04T08:29:35.566Z,99.90
2022-08-04T08:32:07.702Z,99.90
2022-08-04T08:34:35.570Z,99.90
2022-08-04T08:37:04.990Z,99.90
2022-08-04T08:39:38.250Z,99.90
2022-08-04T08:42:07.787Z,99.90
2022-08-04T08:45:01.597Z,99.90
2022-08-04T08:48:05.390Z,99.90
2022-08-04T08:50:39.884Z,99.90
2022-08-04T08:53:26.843Z,99.90
2022-08-04T08:56:02.581Z,99.90
2022-08-04T08:58:35.479Z,99.90
2022-08-04T09:01:05.042Z,99.90
2022-08-04T09:03:50.324Z,99.90
2022-08-04T09:06:52.591Z,99.90
2022-08-04T09:09:35.465Z,99.90
2022-08-04T09:12:15.621Z,99.90
2022-08-04T09:14:49.074Z,99.90
2022-08-04T09:17:38.708Z,99.90
2022-08-04T09:20:13.140Z,99.90
2022-08-04T09:22:58.323Z,99.90
2022-08-04T09:25:28.705Z,99.90
2022-08-04T09:27:59.853Z,99.90
2022-08-04T09:30:36.319Z,99.90
2022-08-04T09:33:45.756Z,99.90
2022-08-04T09:36:26.674Z,99.90
2022-08-04T09:39:06.412Z,99.90
2022-08-04T09:41:48.628Z,99.90
2022-08-04T09:44:50.140Z,99.90
2022-08-04T09:47:20.966Z,99.90
2022-08-04T09:50:23.345Z,99.90
2022-08-04T09:53:10.294Z,99.90
2022-08-04T09:55:54.817Z,99.90
2022-08-04T09:58:22.786Z,99.90
2022-08-04T10:00:58.617Z,99.90
2022-08-04T10:03:26.458Z,99.90
2022-08-04T10:05:56.231Z,99.90
2022-08-04T10:08:29.509Z,99.90
2022-08-04T10:10:56.237Z,99.90
2022-08-04T10:13:34.635Z,99.90
2022-08-04T10:16:07.843Z,99.90
2022-08-04T10:19:08.548Z,99.90
2022-08-04T10:21:59.240Z,99.90
2022-08-04T10:24:59.896Z,99.90
2022-08-04T10:27:45.318Z,99.90
2022-08-04T10:30:12.673Z,99.90
2022-08-04T10:32:44.714Z,99.90
2022-08-04T10:35:16.198Z,99.90
2022-08-04T10:37:59.375Z,99.90
2022-08-04T10:40:45.356Z,99.90
2022-08-04T10:43:31.001Z,99.90
2022-08-04T10:46:06.974Z,99.90
2022-08-04T10:48:52.612Z,99.90
2022-08-04T10:51:23.375Z,99.90
2022-08-04T10:53:51.879Z,99.90
2022-08-04T10:56:30.125Z,99.90
2022-08-04T10:59:23.269Z,99.90
2022-08-04T11:02:01.741Z,99.90
2022-08-04T11:04:44.314Z,99.90
2022-08-04T11:07:12.499Z,99.90
2022-08-04T11:09:39.994Z,99.90
2022-08-04T11:12:15.504Z,99.90
2022-08-04T11:14:46.922Z,99.90
2022-08-04T11:17:17.894Z,99.90
2022-08-04T11:20:31.782Z,99.90
2022-08-04T11:22:55.577Z,99.90
2022-08-04T11:25:28.218Z,99.90
2022-08-04T11:28:11.868Z,99.90
2022-08-04T11:30:44.848Z,99.90
2022-08-04T11:33:23.766Z,99.90
2022-08-04T11:35:59.525Z,99.90
2022-08-04T11:38:45.367Z,99.90
2022-08-04T11:41:20.479Z,99.90
2022-08-04T11:44:02.802Z,99.90
2022-08-04T11:46:34.563Z,99.90
2022-08-04T11:49:03.303Z,99.90
2022-08-04T11:51:31.432Z,99.90
2022-08-04T11:53:59.245Z,99.90
2022-08-04T11:56:35.829Z,99.90
2022-08-04T11:59:04.321Z,99.90
2022-08-04T12:01:50.008Z,99.90
2022-08-04T12:04:16.735Z,99.90
2022-08-04T12:07:28.847Z,99.90
2022-08-04T12:10:08.787Z,99.90
2022-08-04T12:12:58.954Z,99.90
2022-08-04T12:15:45.841Z,99.90
2022-08-04T12:18:23.978Z,99.90
2022-08-04T12:21:02.030Z,99.90
2022-08-04T12:23:39.880Z,99.90
2022-08-04T12:26:07.663Z,99.90
2022-08-04T12:29:08.365Z,99.90
2022-08-04T12:31:40.421Z,99.90
2022-08-04T12:34:09.053Z,99.90
2022-08-04T12:36:59.100Z,99.90
2022-08-04T12:39:27.041Z,99.90
2022-08-04T12:42:07.249Z,99.90
2022-08-04T12:44:37.439Z,99.90
2022-08-04T12:47:26.285Z,99.90
2022-08-04T12:50:00.476Z,99.90
2022-08-04T12:52:51.719Z,99.90
2022-08-04T12:55:16.879Z,99.90
2022-08-04T12:57:43.864Z,99.90
2022-08-04T13:00:11.332Z,99.90
2022-08-04T13:02:42.391Z,99.90
2022-08-04T13:05:16.799Z,99.90
2022-08-04T13:07:49.130Z,99.90
2022-08-04T13:10:17.549Z,99.90
2022-08-04T13:12:52.980Z,99.90
2022-08-04T13:15:23.325Z,99.90
2022-08-04T13:17:50.515Z,99.90
2022-08-04T13:20:23.908Z,99.90
2022-08-04T13:22:50.658Z,99.90
2022-08-04T13:26:42.490Z,99.90
2022-08-04T13:28:08.667Z,99.90
2022-08-04T13:30:35.483Z,99.90
2022-08-04T13:33:02.911Z,99.90
2022-08-04T13:35:54.752Z,99.90
2022-08-04T13:38:18.019Z,99.90
2022-08-04T13:40:45.614Z,99.90
2022-08-04T13:44:16.921Z,99.90
2022-08-04T13:46:14.036Z,99.90
2022-08-04T13:49:15.897Z,99.90
2022-08-04T13:51:57.584Z,99.90
2022-08-04T13:54:26.030Z,99.90
2022-08-04T13:56:59.159Z,99.90
2022-08-04T13:59:27.643Z,99.90
2022-08-04T14:01:59.911Z,99.90
2022-08-04T14:04:28.016Z,99.90
2022-08-04T14:07:26.437Z,99.90
2022-08-04T14:10:02.767Z,99.90
2022-08-04T14:12:38.844Z,99.90
2022-08-04T14:16:01.511Z,99.90
2022-08-04T14:18:18.028Z,99.90
2022-08-04T14:21:05.149Z,99.90
2022-08-04T14:23:51.141Z,99.90
2022-08-04T14:26:20.944Z,99.90
2022-08-04T14:29:28.199Z,99.90
2022-08-04T14:32:05.986Z,99.10
2022-08-04T14:34:39.512Z,98.30
2022-08-04T14:37:17.211Z,99.80
2022-08-04T14:40:17.751Z,99.90
2022-08-04T14:42:43.751Z,98.70
2022-08-04T14:45:10.881Z,99.20
2022-08-04T14:47:40.796Z,99.90
2022-08-04T14:50:09.764Z,99.90
2022-08-04T14:52:37.199Z,99.90
2022-08-04T14:55:17.459Z,99.90
2022-08-04T14:58:35.476Z,99.20
2022-08-04T15:00:32.301Z,99.90
2022-08-04T15:03:08.549Z,98.80
2022-08-04T15:06:01.036Z,98.50
2022-08-04T15:08:23.448Z,98.50
2022-08-04T15:10:58.821Z,97.80
2022-08-04T15:13:26.372Z,98.30
2022-08-04T15:16:02.333Z,97.30
2022-08-04T15:18:39.082Z,98.60
2022-08-04T15:21:06.775Z,97.40
2022-08-04T15:23:38.566Z,97.50
2022-08-04T15:26:07.713Z,97.90
2022-08-04T15:28:36.772Z,98.80
2022-08-04T15:31:04.386Z,97.60
2022-08-04T15:33:34.169Z,96.90
2022-08-04T15:36:15.357Z,97.00
2022-08-04T15:38:51.095Z,97.20
2022-08-04T15:41:24.413Z,96.50
2022-08-04T15:44:09.916Z,95.20
2022-08-04T15:46:44.407Z,98.30
2022-08-04T15:49:24.705Z,94.50
2022-08-04T15:52:01.613Z,96.50
2022-08-04T15:54:32.778Z,95.60
2022-08-04T15:57:02.573Z,98.50
2022-08-04T15:59:48.639Z,95.10
2022-08-04T16:02:33.822Z,94.70
2022-08-04T16:05:17.842Z,95.30
2022-08-04T16:07:57.430Z,95.60
2022-08-04T16:10:44.419Z,96.10
2022-08-04T16:13:15.101Z,94.70
2022-08-04T16:15:43.332Z,94.40
2022-08-04T16:18:25.622Z,95.30
2022-08-04T16:20:55.067Z,91.80
2022-08-04T16:23:53.046Z,92.80
2022-08-04T16:26:36.563Z,93.90
2022-08-04T16:29:24.526Z,95.20
2022-08-04T16:32:11.012Z,95.50
2022-08-04T16:34:48.902Z,94.80
2022-08-04T16:37:21.008Z,93.60
2022-08-04T16:39:50.575Z,95.40
2022-08-04T16:42:30.583Z,95.90
2022-08-04T16:45:11.358Z,95.80
2022-08-04T16:47:47.362Z,97.50
2022-08-04T16:50:15.085Z,98.50
2022-08-04T16:52:45.459Z,99.10
2022-08-04T16:55:12.628Z,98.10
2022-08-04T16:57:39.729Z,97.40
2022-08-04T17:00:07.597Z,98.40
2022-08-04T17:02:35.264Z,98.80
2022-08-04T17:05:07.703Z,97.00
2022-08-04T17:08:26.925Z,99.90
2022-08-04T17:10:43.009Z,99.90
2022-08-04T17:14:01.959Z,99.90
2022-08-04T17:16:18.972Z,99.90
2022-08-04T17:18:47.136Z,99.90
2022-08-04T17:21:15.561Z,99.90
2022-08-04T17:24:14.917Z,99.90
2022-08-04T17:26:41.569Z,99.90
2022-08-04T17:29:12.068Z,99.90
2022-08-04T17:31:40.540Z,99.90
2022-08-04T17:34:15.568Z,99.90
2022-08-04T17:36:43.735Z,99.90
2022-08-04T17:39:21.681Z,99.90
2022-08-04T17:41:54.951Z,99.90
2022-08-04T17:44:34.305Z,99.90
2022-08-04T17:47:12.805Z,99.90
2022-08-04T17:49:52.760Z,99.90
2022-08-04T17:52:37.456Z,99.90
2022-08-04T17:55:13.584Z,99.90
2022-08-04T17:57:43.359Z,99.90
2022-08-04T18:00:20.056Z,99.90
2022-08-04T18:02:52.841Z,99.90
2022-08-04T18:05:26.983Z,99.90
2022-08-04T18:08:38.396Z,99.90
2022-08-04T18:11:00.433Z,99.90
2022-08-04T18:13:28.112Z,99.90
2022-08-04T18:16:05.416Z,99.90
2022-08-04T18:18:32.925Z,99.90
2022-08-04T18:21:03.321Z,99.90
2022-08-04T18:23:32.717Z,99.90
2022-08-04T18:26:02.215Z,99.90
2022-08-04T18:28:30.951Z,99.90
2022-08-04T18:31:01.171Z,99.90
2022-08-04T18:33:40.205Z,99.90
2022-08-04T18:36:33.028Z,99.90
2022-08-04T18:38:59.421Z,99.90
2022-08-04T18:42:00.681Z,99.90
2022-08-04T18:44:29.176Z,99.90
2022-08-04T18:46:56.480Z,99.90
2022-08-04T18:50:59.272Z,99.90
2022-08-04T18:52:15.005Z,99.90
2022-08-04T18:54:42.926Z,99.90
2022-08-04T18:57:32.120Z,99.90
2022-08-04T18:59:56.777Z,99.90
2022-08-04T19:02:26.507Z,99.90
2022-08-04T19:04:53.366Z,99.90
2022-08-04T19:07:35.758Z,99.90
2022-08-04T19:10:07.532Z,99.90
2022-08-04T19:12:53.154Z,99.90
2022-08-04T19:15:19.886Z,99.90
2022-08-04T19:18:01.340Z,99.90
2022-08-04T19:20:28.283Z,99.90
2022-08-04T19:24:10.454Z,99.90
2022-08-04T19:26:01.582Z,99.90
2022-08-04T19:28:34.394Z,99.90
2022-08-04T19:31:06.028Z,99.90
2022-08-04T19:33:59.046Z,99.90
2022-08-04T19:36:19.917Z,99.90
2022-08-04T19:38:46.669Z,99.90
2022-08-04T19:41:15.279Z,99.90
2022-08-04T19:43:46.779Z,99.90
2022-08-04T19:46:14.608Z,99.90
2022-08-04T19:48:44.496Z,99.90
2022-08-04T19:51:27.987Z,99.90
2022-08-04T19:54:02.758Z,99.90
2022-08-04T19:56:39.971Z,99.90
2022-08-04T19:59:08.283Z,99.90
2022-08-04T20:01:43.738Z,99.90
2022-08-04T20:04:11.765Z,99.90
2022-08-04T20:06:39.600Z,99.90
2022-08-04T20:09:25.511Z,99.90
2022-08-04T20:11:53.590Z,99.90
2022-08-04T20:14:31.447Z,99.90
2022-08-04T20:17:00.525Z,99.90
2022-08-04T20:19:27.574Z,99.90
2022-08-04T20:21:56.579Z,99.90
2022-08-04T20:24:38.073Z,99.90
2022-08-04T20:27:15.248Z,99.90
2022-08-04T20:32:33.295Z,99.90
2022-08-04T20:35:00.202Z,99.90
2022-08-04T20:37:55.295Z,99.90
2022-08-04T20:40:14.696Z,99.90
2022-08-04T20:42:44.841Z,99.90
2022-08-04T20:45:16.466Z,99.90
2022-08-04T20:47:45.911Z,99.90
2022-08-04T20:50:30.079Z,99.90
2022-08-04T20:52:58.044Z,99.90
2022-08-04T20:55:25.071Z,99.90
2022-08-04T20:58:00.820Z,99.90
2022-08-04T21:00:30.693Z,99.90
2022-08-04T21:02:59.101Z,99.90
2022-08-04T21:05:26.435Z,99.90
2022-08-04T21:07:56.635Z,99.90
2022-08-04T21:10:26.998Z,99.90
2022-08-04T21:12:54.244Z,99.90
2022-08-04T21:18:11.217Z,99.90
2022-08-04T21:20:43.196Z,99.90
2022-08-04T21:23:10.222Z,99.90
2022-08-04T21:25:42.684Z,99.90
2022-08-04T21:28:10.711Z,99.90
2022-08-04T21:30:54.576Z,99.90
2022-08-04T21:33:23.007Z,99.90
2022-08-04T21:35:54.221Z,99.90
2022-08-04T21:38:28.084Z,99.90
2022-08-04T21:40:55.661Z,99.90
2022-08-04T21:43:23.597Z,99.90
2022-08-04T21:45:55.030Z,99.90
2022-08-04T21:48:23.159Z,99.90
2022-08-04T21:50:54.012Z,99.90
2022-08-04T21:53:21.453Z,99.90
2022-08-04T21:56:06.846Z,99.90
2022-08-04T21:58:36.081Z,99.90
2022-08-04T22:01:12.881Z,99.90
2022-08-04T22:03:51.912Z,99.90
2022-08-04T22:06:21.419Z,99.90
2022-08-04T22:08:55.780Z,99.90
2022-08-04T22:11:26.013Z,99.90
2022-08-04T22:14:11.489Z,99.90
2022-08-04T22:16:39.802Z,99.90
2022-08-04T22:19:08.780Z,99.90
2022-08-04T22:21:39.212Z,99.90
2022-08-04T22:24:13.987Z,99.90
2022-08-04T22:26:41.391Z,99.90
2022-08-04T22:29:14.314Z,99.90
2022-08-04T22:31:55.547Z,99.90
2022-08-04T22:34:23.860Z,99.90
2022-08-04T22:36:50.854Z,99.90
2022-08-04T22:39:19.200Z,99.90
2022-08-04T22:41:48.463Z,99.90
2022-08-04T22:44:29.689Z,99.90
2022-08-04T22:47:00.021Z,99.90
2022-08-04T22:49:31.969Z,99.90
2022-08-04T22:51:59.875Z,99.90
2022-08-04T22:54:36.175Z,99.90
2022-08-04T22:57:02.883Z,99.90
2022-08-04T22:59:29.584Z,99.90
2022-08-04T23:01:58.751Z,99.90
2022-08-04T23:04:28.426Z,99.90
2022-08-04T23:06:55.234Z,99.90
2022-08-04T23:09:26.903Z,99.90
2022-08-04T23:12:24.463Z,99.90
2022-08-04T23:14:53.168Z,99.90
2022-08-04T23:17:21.810Z,99.90
2022-08-04T23:19:57.601Z,99.90
2022-08-04T23:22:41.115Z,99.90
2022-08-04T23:25:15.746Z,99.90
2022-08-04T23:27:50.716Z,99.90
2022-08-04T23:30:19.545Z,99.90
2022-08-04T23:32:46.292Z,99.90
2022-08-04T23:35:15.126Z,99.90
2022-08-04T23:37:56.281Z,99.90
2022-08-04T23:40:32.679Z,99.90
2022-08-04T23:43:01.838Z,99.90
2022-08-04T23:46:01.976Z,99.90
2022-08-04T23:48:21.082Z,99.90
2022-08-04T23:50:47.906Z,99.90
2022-08-04T23:53:18.316Z,99.90
2022-08-04T23:55:45.469Z,99.90
2022-08-04T23:58:18.874Z,99.90
